Aérodrome :
LOGIN :

S'inscrire | Disclaimer

   EN    FR    IT 

 










Légende :    VFR   VFR Marginal   IFR   IFR Intensif   IFR Très Intensif
Visi : 
Plafond : 
>= 8 km
>= 3000ft
5 à 8 km
1000 à 3000 ft
1500m à 5 km
500 à 1000 ft
800 à 1500m
200 à 500 ft
< 800m
< 200 ft
Symboles :   Orages  Brouillard  Fortes neiges  Fortes précipitations  Vent > 20 kt
SIGMETs :   Divers  Orages  Givrage  Turbulence  Onde Orograph.  Cendres Volcan.







- Altitude de l'aérodrome : 433 ft
- Voir les cartes d'approche


LFOC - Chateaudun

DERNIER METAR :
  • 131630Z AUTO 20017KT 7000 -DZ BKN006 OVC012 09/08 Q1000

METARs EXPIRÉS :
  • 131600Z AUTO 21014KT 6000 -RA SCT006 BKN010 BKN019 09/08 Q1002 TEMPO 22030G40KT 3000 RADZ
  • 131530Z AUTO 21015KT 6000 -RADZ BKN010 OVC026 09/08 Q1002 TEMPO 22030G40KT 3000 RADZ
  • 131500Z AUTO 22016KT 6000 -DZ BKN013 OVC019 09/08 Q1003 TEMPO 22030G40KT 3000 RADZ
  • 131430Z AUTO 21016KT 9999 BKN020 BKN025 BKN032 10/08 Q1004 TEMPO 22030G40KT 3000 RADZ SCT009 BKN012
  • 131400Z AUTO 21013KT 9999 BKN018 OVC042 10/08 Q1004 TEMPO 2000 DZRA SCT007 BKN012 BECMG 21020G33KT

TAF TAF LFOC
Valide du 13 à 15h jusqu'au 14 à 15h UTC


131400Z 1315/1415 22020G30KT 9999 BKN015
TEMPO 1315/1324 22030G40KT 3000 RADZ SCT009 BKN012
TEMPO 1411/1415 4000 SHRA SCT010 BKN015CB
Pas de NOTAMs connus pour ce terrain.
4 SIGMETs publiés pour la FIR Paris (LFFF) :
 
Turbulence forte
LFFF SIGMET 6 VALID 131700/132000 LFPW
LFFF PARIS FIR/UIR SEV TURB FCST S OF N4745 AND W OF E00300 SFC/FL050 MOV NE 40KT INTSF=
Annulation du SIGMET 4 
LFFF SIGMET 5 VALID 131600/132100 LFPW
LFFF PARIS FIR/UIR CNL SIGMET 4 131700/132100=
SIGMET 4  ANNULÉ :
Turbulence forte
LFFF SIGMET 4 VALID 131700/132100 LFPW
LFFF PARIS FIR/UIR SEV TURB FCST S OF N4745 AND W OF E00300 SFC/FL050 MOV NE 40KT INTSF=
Turbulence forte
LFFF SIGMET 3 VALID 131600/132000 LFPW
LFFF PARIS FIR/UIR SEV TURB FCST WI N4900 W00015 - N5000 W00015 - N5115 E00200 - N5100 E00215 - N5000 E00215 - N4900 W00015 SFC/FL050 MOV E 50KT NC=



MET'MAP, la Météo Aéronautique d'un coup d'oeil ! - Copyright ORBIFLY Décembre 2007 - Disclaimer

ORBIFLY MET'MAP TEAM :

Programmation & Développement : Alexandra Zaïnal
Conception & Développement : Baudouin d'Aumeries
Co-Programmation & Développement : Marc-Olivier Méhu
Soutien technique & logistique : Manuel Goepfert

Contact : metmap@orbifly.com




SOURCES & CREDITS :

   NOAA